createdAt,value
2018-05-17T00:00:36.132Z,92.00
2018-05-17T00:03:03.605Z,92.10
2018-05-17T00:05:31.057Z,92.10
2018-05-17T00:07:58.509Z,92.20
2018-05-17T00:10:26.369Z,91.70
2018-05-17T00:12:53.814Z,92.40
2018-05-17T00:15:21.245Z,91.90
2018-05-17T00:17:49.553Z,91.60
2018-05-17T00:20:16.990Z,91.60
2018-05-17T00:22:44.485Z,91.20
2018-05-17T00:25:11.941Z,91.50
2018-05-17T00:27:39.386Z,91.30
2018-05-17T00:30:06.910Z,91.80
2018-05-17T00:32:34.325Z,91.70
2018-05-17T00:35:01.776Z,91.50
2018-05-17T00:37:29.205Z,91.30
2018-05-17T00:39:56.685Z,91.40
2018-05-17T00:42:24.122Z,90.60
2018-05-17T00:44:51.565Z,91.40
2018-05-17T00:47:19.061Z,91.40
2018-05-17T00:49:46.506Z,90.30
2018-05-17T00:52:13.938Z,90.20
2018-05-17T00:54:41.585Z,89.80
2018-05-17T00:57:09.789Z,87.60
2018-05-17T00:59:37.272Z,87.50
2018-05-17T01:02:04.711Z,89.60
2018-05-17T01:04:32.144Z,88.60
2018-05-17T01:07:00.349Z,88.00
2018-05-17T01:09:27.780Z,88.00
2018-05-17T01:11:55.977Z,87.10
2018-05-17T01:14:23.408Z,87.10
2018-05-17T01:16:51.629Z,86.50
2018-05-17T01:19:19.057Z,86.40
2018-05-17T01:21:46.497Z,85.60
2018-05-17T01:24:14.688Z,86.20
2018-05-17T01:26:42.129Z,86.30
2018-05-17T01:29:10.329Z,85.60
2018-05-17T01:31:37.761Z,85.60
2018-05-17T01:34:05.986Z,86.00
2018-05-17T01:36:33.420Z,86.00
2018-05-17T01:39:00.900Z,86.40
2018-05-17T01:41:28.349Z,85.60
2018-05-17T01:43:55.814Z,86.30
2018-05-17T01:46:23.245Z,85.20
2018-05-17T01:48:50.729Z,86.80
2018-05-17T01:51:18.181Z,85.90
2018-05-17T01:53:45.645Z,86.20
2018-05-17T01:56:13.097Z,86.10
2018-05-17T01:58:40.545Z,87.10
2018-05-17T02:01:08.001Z,86.70
2018-05-17T02:03:35.425Z,87.20
2018-05-17T02:06:03.649Z,88.20
2018-05-17T02:08:31.217Z,88.20
2018-05-17T02:10:58.652Z,87.60
2018-05-17T02:13:26.089Z,87.00
2018-05-17T02:15:53.577Z,89.30
2018-05-17T02:18:21.029Z,87.30
2018-05-17T02:20:48.500Z,87.20
2018-05-17T02:23:15.938Z,86.80
2018-05-17T02:25:43.360Z,85.90
2018-05-17T02:28:11.572Z,86.50
2018-05-17T02:30:39.001Z,86.40
2018-05-17T02:33:06.437Z,87.10
2018-05-17T02:35:33.968Z,87.00
2018-05-17T02:38:01.389Z,87.30
2018-05-17T02:40:28.835Z,86.90
2018-05-17T02:42:56.337Z,87.60
2018-05-17T02:45:23.798Z,87.10
2018-05-17T02:47:51.249Z,86.90
2018-05-17T02:50:18.689Z,88.30
2018-05-17T02:52:46.167Z,88.80
2018-05-17T02:55:13.621Z,88.60
2018-05-17T02:57:41.087Z,88.80
2018-05-17T03:00:08.520Z,87.80
2018-05-17T03:02:35.996Z,88.40
2018-05-17T03:05:03.460Z,88.50
2018-05-17T03:07:30.921Z,88.30
2018-05-17T03:09:58.352Z,88.50
2018-05-17T03:12:25.835Z,88.80
2018-05-17T03:14:53.265Z,88.50
2018-05-17T03:17:20.717Z,89.40
2018-05-17T03:19:48.502Z,89.10
2018-05-17T03:22:15.933Z,88.30
2018-05-17T03:24:43.423Z,89.00
2018-05-17T03:27:10.885Z,88.80
2018-05-17T03:29:38.325Z,88.00
2018-05-17T03:32:05.797Z,88.20
2018-05-17T03:34:33.260Z,88.10
2018-05-17T03:37:00.700Z,88.20
2018-05-17T03:39:28.141Z,87.50
2018-05-17T03:41:55.797Z,87.60
2018-05-17T03:44:23.285Z,87.10
2018-05-17T03:46:50.728Z,86.90
2018-05-17T03:49:18.206Z,86.50
2018-05-17T03:51:45.653Z,87.90
2018-05-17T03:54:13.085Z,87.00
2018-05-17T03:56:40.579Z,86.20
2018-05-17T03:59:08.009Z,85.60
2018-05-17T04:01:47.304Z,86.10
2018-05-17T04:04:26.812Z,85.50
2018-05-17T04:06:54.269Z,85.20
2018-05-17T04:09:21.730Z,83.70
2018-05-17T04:11:49.167Z,84.40
2018-05-17T04:14:16.596Z,84.20
2018-05-17T04:16:44.182Z,84.30
2018-05-17T04:19:11.601Z,84.20
2018-05-17T04:21:39.840Z,84.20
2018-05-17T04:24:07.397Z,84.20
2018-05-17T04:26:34.834Z,83.80
2018-05-17T04:29:02.275Z,84.30
2018-05-17T04:31:29.697Z,84.40
2018-05-17T04:33:57.231Z,83.80
2018-05-17T04:36:24.680Z,84.20
2018-05-17T04:38:52.237Z,84.40
2018-05-17T04:41:19.697Z,84.20
2018-05-17T04:43:47.160Z,84.30
2018-05-17T04:46:14.601Z,83.40
2018-05-17T04:48:42.033Z,83.40
2018-05-17T04:51:09.472Z,83.70
2018-05-17T04:53:37.673Z,83.50
2018-05-17T04:56:05.176Z,83.30
2018-05-17T04:58:32.601Z,83.90
2018-05-17T05:01:00.077Z,84.10
2018-05-17T05:03:27.554Z,83.50
2018-05-17T05:05:54.973Z,83.00
2018-05-17T05:08:22.418Z,82.50
2018-05-17T05:10:49.845Z,82.10
2018-05-17T05:13:17.367Z,82.80
2018-05-17T05:15:44.807Z,82.60
2018-05-17T05:18:12.229Z,81.70
2018-05-17T05:20:40.425Z,80.50
2018-05-17T05:23:07.913Z,80.50
2018-05-17T05:25:35.356Z,80.80
2018-05-17T05:28:02.781Z,80.00
2018-05-17T05:30:31.018Z,79.80
2018-05-17T05:32:58.444Z,79.70
2018-05-17T05:35:25.917Z,78.70
2018-05-17T05:37:53.438Z,79.70
2018-05-17T05:40:20.842Z,77.70
2018-05-17T05:42:48.276Z,78.00
2018-05-17T05:45:15.937Z,77.30
2018-05-17T05:47:43.984Z,76.60
2018-05-17T05:50:12.206Z,76.00
2018-05-17T05:52:39.671Z,76.00
2018-05-17T05:55:07.157Z,75.90
2018-05-17T05:57:35.364Z,75.90
2018-05-17T06:00:02.797Z,75.20
2018-05-17T06:02:31.030Z,75.10
2018-05-17T06:04:58.477Z,75.10
2018-05-17T06:07:25.901Z,74.60
2018-05-17T06:09:53.344Z,75.70
2018-05-17T06:12:21.537Z,74.60
2018-05-17T06:14:49.001Z,74.50
2018-05-17T06:17:17.232Z,72.40
2018-05-17T06:19:44.645Z,72.40
2018-05-17T06:22:12.081Z,70.90
2018-05-17T06:24:39.585Z,70.80
2018-05-17T06:27:07.014Z,70.40
2018-05-17T06:29:34.499Z,70.20
2018-05-17T06:32:01.936Z,68.90
2018-05-17T06:34:29.409Z,69.20
2018-05-17T06:36:56.869Z,70.30
2018-05-17T06:39:24.329Z,70.00
2018-05-17T06:41:51.781Z,69.40
2018-05-17T06:44:19.250Z,70.80
2018-05-17T06:46:46.717Z,71.20
2018-05-17T06:49:15.708Z,70.10
2018-05-17T06:51:43.132Z,70.00
2018-05-17T06:54:10.581Z,68.80
2018-05-17T06:56:38.017Z,69.60
2018-05-17T06:59:06.276Z,69.80
2018-05-17T07:01:33.664Z,69.60
2018-05-17T07:04:01.097Z,69.70
2018-05-17T07:06:29.329Z,69.90
2018-05-17T07:08:56.762Z,70.00
2018-05-17T07:11:24.205Z,67.90
2018-05-17T07:13:51.641Z,68.50
2018-05-17T07:16:19.854Z,68.00
2018-05-17T07:18:47.573Z,67.90
2018-05-17T07:21:14.807Z,66.30
2018-05-17T07:23:42.240Z,63.80
2018-05-17T07:26:09.709Z,62.70
2018-05-17T07:28:37.168Z,59.90
2018-05-17T07:31:04.604Z,53.60
2018-05-17T07:33:32.085Z,51.50
2018-05-17T07:35:59.551Z,44.70
2018-05-17T07:38:27.011Z,47.30
2018-05-17T07:40:54.453Z,44.10
2018-05-17T07:43:21.881Z,40.70
2018-05-17T07:45:49.330Z,39.30
2018-05-17T07:48:16.764Z,36.80
2018-05-17T07:50:44.277Z,32.80
2018-05-17T07:53:11.745Z,30.60
2018-05-17T07:55:39.220Z,32.00
2018-05-17T07:58:06.642Z,33.90
2018-05-17T08:00:34.157Z,38.00
2018-05-17T08:03:01.563Z,40.90
2018-05-17T08:05:28.990Z,42.70
2018-05-17T08:07:56.437Z,45.60
2018-05-17T08:10:24.668Z,48.30
2018-05-17T08:12:52.111Z,48.30
2018-05-17T08:15:19.590Z,48.90
2018-05-17T08:17:47.145Z,50.10
2018-05-17T08:20:14.584Z,49.00
2018-05-17T08:22:42.031Z,46.20
2018-05-17T08:25:09.518Z,47.70
2018-05-17T08:27:36.960Z,47.80
2018-05-17T08:30:04.433Z,48.70
2018-05-17T08:32:31.874Z,45.40
2018-05-17T08:34:59.316Z,41.30
2018-05-17T08:37:26.748Z,37.90
2018-05-17T08:39:54.960Z,35.80
2018-05-17T08:42:22.437Z,35.90
2018-05-17T08:44:49.870Z,36.30
2018-05-17T08:47:17.333Z,36.40
2018-05-17T08:49:44.753Z,36.50
2018-05-17T08:52:12.972Z,34.70
2018-05-17T08:54:40.441Z,34.70
2018-05-17T08:57:07.901Z,35.30
2018-05-17T08:59:35.347Z,36.20
2018-05-17T09:02:02.784Z,37.00
2018-05-17T09:04:30.216Z,37.10
2018-05-17T09:06:58.530Z,36.60
2018-05-17T09:09:25.957Z,36.60
2018-05-17T09:11:54.161Z,36.50
2018-05-17T09:14:21.595Z,36.40
2018-05-17T09:16:49.041Z,36.80
2018-05-17T09:19:17.241Z,39.50
2018-05-17T09:21:44.680Z,39.40
2018-05-17T09:24:12.885Z,42.40
2018-05-17T09:26:40.338Z,42.40
2018-05-17T09:29:07.814Z,41.90
2018-05-17T09:31:35.972Z,42.80
2018-05-17T09:34:03.405Z,42.80
2018-05-17T09:36:30.905Z,41.50
2018-05-17T09:38:58.357Z,43.40
2018-05-17T09:41:25.865Z,43.30
2018-05-17T09:43:53.283Z,44.40
2018-05-17T09:46:20.739Z,44.00
2018-05-17T09:48:48.189Z,44.50
2018-05-17T09:51:15.652Z,44.60
2018-05-17T09:53:43.125Z,47.90
2018-05-17T09:56:10.596Z,46.00
2018-05-17T09:58:39.557Z,46.70
2018-05-17T10:01:07.012Z,46.70
2018-05-17T10:03:34.440Z,47.10
2018-05-17T10:06:01.877Z,46.00
2018-05-17T10:08:30.834Z,46.70
2018-05-17T10:10:58.265Z,46.80
2018-05-17T10:13:25.753Z,47.00
2018-05-17T10:15:53.307Z,47.70
2018-05-17T10:18:20.842Z,44.70
2018-05-17T10:20:48.261Z,45.10
2018-05-17T10:23:16.478Z,44.20
2018-05-17T10:25:43.956Z,44.20
2018-05-17T10:28:11.401Z,48.40
2018-05-17T10:30:38.865Z,46.50
2018-05-17T10:33:06.317Z,47.00
2018-05-17T10:35:33.754Z,46.80
2018-05-17T10:38:01.189Z,45.30
2018-05-17T10:40:29.789Z,46.80
2018-05-17T10:42:57.984Z,46.20
2018-05-17T10:45:25.453Z,46.30
2018-05-17T10:47:52.887Z,45.90
2018-05-17T10:50:20.333Z,47.50
2018-05-17T10:52:47.829Z,47.40
2018-05-17T10:55:15.276Z,46.60
2018-05-17T10:57:42.705Z,44.40
2018-05-17T11:00:10.144Z,45.50
2018-05-17T11:02:38.368Z,45.10
2018-05-17T11:05:05.802Z,45.10
2018-05-17T11:07:33.241Z,46.20
2018-05-17T11:10:01.433Z,46.60
2018-05-17T11:12:28.876Z,46.50
2018-05-17T11:14:57.097Z,45.80
2018-05-17T11:17:24.543Z,45.80
2018-05-17T11:19:51.977Z,46.30
2018-05-17T11:22:19.469Z,46.30
2018-05-17T11:24:46.914Z,46.80
2018-05-17T11:27:14.396Z,45.30
2018-05-17T11:29:41.829Z,45.30
2018-05-17T11:32:09.262Z,44.10
2018-05-17T11:34:37.460Z,44.70
2018-05-17T11:37:04.893Z,44.70
2018-05-17T11:39:32.340Z,45.10
2018-05-17T11:42:00.567Z,43.20
2018-05-17T11:44:28.033Z,43.10
2018-05-17T11:46:55.466Z,44.00
2018-05-17T11:49:22.908Z,44.90
2018-05-17T11:51:50.345Z,44.30
2018-05-17T11:54:18.567Z,45.90
2018-05-17T11:56:46.013Z,45.90
2018-05-17T11:59:13.452Z,45.80
2018-05-17T12:01:41.059Z,45.70
2018-05-17T12:04:08.481Z,47.00
2018-05-17T12:06:35.909Z,48.30
2018-05-17T12:09:04.141Z,48.40
2018-05-17T12:11:31.576Z,48.40
2018-05-17T12:13:59.053Z,47.30
2018-05-17T12:16:26.509Z,46.80
2018-05-17T12:18:53.948Z,45.10
2018-05-17T12:21:21.425Z,45.50
2018-05-17T12:23:48.893Z,44.80
2018-05-17T12:26:16.337Z,44.10
2018-05-17T12:28:43.765Z,44.60
2018-05-17T12:31:11.257Z,45.60
2018-05-17T12:33:38.799Z,45.40
2018-05-17T12:36:06.230Z,45.30
2018-05-17T12:38:34.421Z,45.60
2018-05-17T12:41:01.910Z,45.60
2018-05-17T12:43:29.344Z,46.40
2018-05-17T12:45:56.824Z,46.00
2018-05-17T12:48:24.263Z,44.40
2018-05-17T12:50:51.705Z,43.70
2018-05-17T12:53:19.885Z,44.20
2018-05-17T12:55:47.333Z,44.20
2018-05-17T12:58:15.533Z,44.50
2018-05-17T13:00:42.977Z,44.40
2018-05-17T13:03:10.462Z,44.50
2018-05-17T13:05:37.884Z,44.00
2018-05-17T13:08:05.921Z,44.40
2018-05-17T13:10:33.357Z,43.90
2018-05-17T13:13:00.801Z,44.20
2018-05-17T13:15:28.233Z,44.30
2018-05-17T13:17:55.672Z,45.00
2018-05-17T13:20:23.873Z,44.60
2018-05-17T13:22:51.312Z,44.60
2018-05-17T13:25:18.746Z,45.30
2018-05-17T13:27:46.173Z,44.40
2018-05-17T13:30:13.743Z,43.60
2018-05-17T13:32:41.162Z,44.20
2018-05-17T13:35:08.626Z,44.30
2018-05-17T13:37:36.139Z,44.40
2018-05-17T13:40:04.257Z,43.80
2018-05-17T13:42:31.725Z,43.80
2018-05-17T13:44:59.160Z,44.10
2018-05-17T13:47:26.600Z,43.40
2018-05-17T13:49:54.806Z,43.40
2018-05-17T13:52:22.259Z,43.40
2018-05-17T13:54:49.705Z,43.30
2018-05-17T13:57:17.909Z,43.70
2018-05-17T13:59:45.347Z,43.60
2018-05-17T14:02:12.800Z,41.80
2018-05-17T14:04:40.295Z,42.30
2018-05-17T14:07:07.737Z,41.90
2018-05-17T14:09:35.258Z,42.50
2018-05-17T20:31:55.544Z,50.20
2018-05-17T20:34:22.997Z,53.00
2018-05-17T20:36:51.118Z,54.70
2018-05-17T20:39:18.553Z,56.10
2018-05-17T20:41:46.757Z,56.70
2018-05-17T20:44:14.209Z,56.70
2018-05-17T20:46:41.643Z,57.10
2018-05-17T20:49:09.850Z,58.00
2018-05-17T20:51:37.288Z,57.90
2018-05-17T20:54:05.490Z,58.30
2018-05-17T20:56:32.930Z,58.30
2018-05-17T20:59:00.360Z,58.60
2018-05-17T21:01:27.805Z,58.80
2018-05-17T21:03:55.274Z,59.00
2018-05-17T21:06:22.717Z,59.00
2018-05-17T21:08:50.162Z,59.50
2018-05-17T21:11:17.601Z,59.10
2018-05-17T21:13:45.056Z,59.10
2018-05-17T21:16:12.490Z,59.10
2018-05-17T21:18:39.929Z,59.30
2018-05-17T21:21:08.137Z,59.50
2018-05-17T21:23:35.585Z,59.40
2018-05-17T21:26:03.034Z,59.20
2018-05-17T21:28:30.476Z,59.30
2018-05-17T21:30:59.587Z,59.50
2018-05-17T21:33:27.033Z,59.50
2018-05-17T21:35:55.244Z,59.70
2018-05-17T21:38:22.675Z,59.60
2018-05-17T21:40:50.107Z,59.80
2018-05-17T21:43:17.557Z,59.80
2018-05-17T21:45:44.990Z,59.90
2018-05-17T21:48:12.426Z,60.00
2018-05-17T21:50:39.863Z,60.00
2018-05-17T21:53:07.309Z,60.00
2018-05-17T21:55:35.549Z,60.20
2018-05-17T21:58:02.945Z,60.10
2018-05-17T22:00:31.141Z,60.30
2018-05-17T22:02:58.574Z,60.30
2018-05-17T22:05:26.807Z,60.40
2018-05-17T22:07:54.255Z,60.40
2018-05-17T22:10:21.697Z,60.40
2018-05-17T22:12:49.126Z,60.50
2018-05-17T22:15:17.333Z,60.60
2018-05-17T22:17:44.766Z,60.70
2018-05-17T22:20:12.224Z,60.30
2018-05-17T22:22:40.422Z,60.30
2018-05-17T22:25:07.862Z,60.20
2018-05-17T22:27:35.297Z,60.40
2018-05-17T22:30:03.548Z,60.60
2018-05-17T22:32:30.989Z,60.60
2018-05-17T22:34:58.430Z,60.70
2018-05-17T22:37:25.861Z,60.70
2018-05-17T22:39:53.305Z,60.80
2018-05-17T22:42:21.512Z,60.90
2018-05-17T22:44:48.937Z,60.90
2018-05-17T22:47:17.148Z,61.10
2018-05-17T22:49:44.621Z,61.10
2018-05-17T22:52:12.078Z,61.20
2018-05-17T22:54:39.518Z,61.20
2018-05-17T22:57:12.770Z,61.40
2018-05-17T22:59:40.983Z,60.80
2018-05-17T23:02:08.421Z,61.40
2018-05-17T23:04:36.619Z,61.60
2018-05-17T23:07:04.058Z,61.50
2018-05-17T23:09:31.482Z,61.60
2018-05-17T23:11:58.915Z,61.60
2018-05-17T23:14:26.361Z,61.50
2018-05-17T23:16:53.798Z,61.70
2018-05-17T23:19:21.240Z,61.90
2018-05-17T23:21:49.439Z,62.00
2018-05-17T23:24:16.886Z,62.10
2018-05-17T23:26:44.322Z,61.20
2018-05-17T23:29:12.537Z,62.10
2018-05-17T23:31:39.982Z,62.00
2018-05-17T23:34:07.424Z,62.00
2018-05-17T23:36:34.862Z,62.00
2018-05-17T23:39:03.073Z,62.40
2018-05-17T23:41:36.850Z,62.30
2018-05-17T23:44:05.065Z,62.40
2018-05-17T23:46:32.513Z,62.40
2018-05-17T23:48:59.970Z,62.40
2018-05-17T23:51:27.410Z,62.50
2018-05-17T23:53:55.607Z,62.60
2018-05-17T23:56:23.050Z,62.50
2018-05-17T23:58:50.508Z,62.70
